Forside
METAR-TAF:

METAR-TAF

Lufthavne :

Community_Airport

Owosso, Michigan, USA

Breddekreds: 42-59-34N, længdekreds: 084-08-20W, højde: 224 m

Aktuelle vejr

Denne rapport blev lavet for 28 minutter siden, kl. 13:35 UTC
Vind 7 kt fra nordnordøst
Temperatur 3°C
Fugtighed 87%
Tryk 1017 hPa
Sigt: 11.3 km
Overskyet i en højde af 1000 ft

METAR: KRNP 311335Z AUTO 03007KT 7SM OVC010 03/01 A3004 RMK AO2 T00310011

Tid: 10:03 (14:03 UTC)


TAF: fraværende

Vejrobservationer og prognoser fra mere end 4000 lufthavne (METAR og TAF).

De gule og røde prikker repræsenterer de meteorologiske stationer.

Flyt musen over at se navnet på stationen.

Så klik over at se vejr observationer og prognoser.

At skifte det kort: Klik på de grønne knapper med et sort kors for at zoome ind; på den grønne knap med en bindestreg for at zoome ud; eller på de grønne pile for tilstødende kort.


METAR-TAF: